Terminal Aerodrome Forecast
Issued by NWS Nashville, TN

Home | Current Version | Previous Version | Text Only | Print | Product List | Glossary On
Versions: 1 2 3 4 5 6 7 8 9 10 11 12 13
999
FTUS44 KOHX 252320
TAFCSV
TAF
KCSV 252320Z 2600/2624 00000KT P6SM SKC
     FM261500 26007KT P6SM SCT060 BKN120
     FM262100 32007KT P6SM VCSH BKN050=

USA.gov is the U.S. government's official web portal to all federal, state and local government web resources and services.